Terminal Aerodrome Forecast
Issued by NWS

Current Version | Previous Version | Text Only | Print | Product List | Glossary On
Versions: 1 2 3 4 5 6 7 8 9 10 11 12 13 14 15 16 17
000
FTUS41 KBTV 041120
TAFRUT
TAF
KRUT 041120Z 0412/0512 13006KT P6SM BKN120
     FM041400 13004KT P6SM VCSH BKN040 BKN120
     FM041700 21007KT 5SM +SHRA BKN040
     FM042200 25007KT P6SM VCSH BKN060
     FM050200 26008KT P6SM BKN070 OVC100
      AMD NOT SKED=

USA.gov is the U.S. government's official web portal to all federal, state and local government web resources and services.